PWSweather.com
Personal Weather Stations
Station Observations
REBOX73
Petalia At Mount Pantokrator, CorfuGR 49081

Petalia At Mount PantokratorCorfuGR 49081

Lat: 39.747915, Lon: 19.841466

Elevation: 2132

Station Type: ws1080

http://pantokratoras-kerkyra.meteoclub.gr/

Latest ConditionsUpdated 10:00:01 PM GMT+01:01 Friday, Feb 27, 2015
Currently Today's Max Today's Min Today's Average
Temperature 45.9°F7.7°C 51.6°F10.9°C 42.4°F5.8°C 46.3°F7.9°C
Dew Point 45.6°F7.6°C 46.0°F7.8°C 42.2°F5.7°C 44.1°F6.7°C
Winds 2.8 mph E4.5 kmh E 14.7 mph SE23.7 kmh SE - 5.2 mph 8.4 kmh
Wind Gusts 4.5 mph7.2 kmh 18.3 mph29.5 kmh - -
Humidity 99% 100% 76% 93%
Pressure 29.73 in1006.8 mb 29.81 in1009.5 mb 29.66 in1004.4 mb -
Precipitation - 0.59 in15.0 mm - -
Hour Temp Dew Point Humidity Winds Wind Gusts Pressure Precip Precip Rate Daily Precip Total
10:00 PM 45.9°F7.7°C 45.6°F7.6°C 99% 2.8 mph E4.5 kmh E 4.5 mph7.2 kmh 29.73 in1006.8 mb 0.02 in0.5 mm 0.00 in/hr0.0 mm/hr 0.59 in15.0 mm
09:45 PM 46.0°F7.8°C 45.8°F7.7°C 99% 2.9 mph SE4.7 kmh SE 5.4 mph8.7 kmh 29.73 in1006.8 mb 0.04 in1.0 mm 0.00 in/hr0.0 mm/hr 0.59 in15.0 mm
09:30 PM 46.2°F7.9°C 46.0°F7.8°C 99% 2.8 mph NW4.5 kmh NW 3.1 mph5.0 kmh 29.73 in1006.8 mb 0.04 in1.0 mm 0.00 in/hr0.0 mm/hr 0.59 in15.0 mm
09:15 PM 46.2°F7.9°C 46.0°F7.8°C 99% 4.7 mph NW7.6 kmh NW 8.3 mph13.4 kmh 29.73 in1006.8 mb 0.04 in1.0 mm 0.12 in/hr3.0 mm/hr 0.59 in15.0 mm
09:00 PM 46.2°F7.9°C 46.0°F7.8°C 99% 2.2 mph NE3.5 kmh NE 3.1 mph5.0 kmh 29.73 in1006.8 mb 0.01 in0.3 mm 0.01 in/hr0.3 mm/hr 0.56 in14.2 mm
08:45 PM 46.2°F7.9°C 46.0°F7.8°C 99% 1.7 mph NW2.7 kmh NW 3.8 mph6.1 kmh 29.72 in1006.4 mb 0.00 in0.0 mm 0.00 in/hr0.0 mm/hr 0.55 in14.0 mm
08:30 PM 46.0°F7.8°C 45.8°F7.7°C 99% 2.8 mph NW4.5 kmh NW 5.4 mph8.7 kmh 29.72 in1006.4 mb 0.00 in0.0 mm 0.00 in/hr0.0 mm/hr 0.55 in14.0 mm
08:15 PM 45.9°F7.7°C 45.6°F7.6°C 99% 3.9 mph NNW6.3 kmh NNW 6.9 mph11.1 kmh 29.72 in1006.4 mb 0.00 in0.0 mm 0.00 in/hr0.0 mm/hr 0.55 in14.0 mm
08:00 PM 45.1°F7.3°C 44.9°F7.2°C 99% 4.5 mph NW7.2 kmh NW 6.9 mph11.1 kmh 29.72 in1006.4 mb 0.00 in0.0 mm 0.00 in/hr0.0 mm/hr 0.55 in14.0 mm
07:45 PM 45.1°F7.3°C 44.9°F7.2°C 99% 3.5 mph NNW5.6 kmh NNW 5.4 mph8.7 kmh 29.71 in1006.1 mb 0.00 in0.0 mm 0.00 in/hr0.0 mm/hr 0.55 in14.0 mm
07:30 PM 45.1°F7.3°C 44.9°F7.2°C 99% 3.5 mph N5.6 kmh N 4.5 mph7.2 kmh 29.70 in1005.8 mb 0.00 in0.0 mm 0.00 in/hr0.0 mm/hr 0.55 in14.0 mm
07:15 PM 45.1°F7.3°C 44.9°F7.2°C 99% 1.4 mph NNE2.3 kmh NNE 3.1 mph5.0 kmh 29.70 in1005.8 mb 0.00 in0.0 mm 0.00 in/hr0.0 mm/hr 0.55 in14.0 mm
07:00 PM 45.0°F7.2°C 44.7°F7.1°C 99% 0.2 mph NW0.3 kmh NW 1.6 mph2.6 kmh 29.70 in1005.8 mb 0.00 in0.0 mm 0.00 in/hr0.0 mm/hr 0.55 in14.0 mm
06:45 PM 45.0°F7.2°C 44.7°F7.1°C 99% Calm Calm -- 29.70 in1005.8 mb 0.00 in0.0 mm 0.00 in/hr0.0 mm/hr 0.55 in14.0 mm
06:30 PM 45.0°F7.2°C 44.7°F7.1°C 99% 0.2 mph SW0.3 kmh SW 0.7 mph1.1 kmh 29.69 in1005.4 mb 0.00 in0.0 mm 0.00 in/hr0.0 mm/hr 0.55 in14.0 mm
06:15 PM 45.1°F7.3°C 45.1°F7.3°C 100% 0.1 mph E0.2 kmh E 0.7 mph1.1 kmh 29.69 in1005.4 mb 0.02 in0.5 mm 0.00 in/hr0.0 mm/hr 0.55 in14.0 mm
06:00 PM 45.3°F7.4°C 44.5°F6.9°C 97% 0.7 mph WNW1.1 kmh WNW 2.2 mph3.5 kmh 29.68 in1005.1 mb 0.08 in2.0 mm 0.00 in/hr0.0 mm/hr 0.55 in14.0 mm
05:45 PM 45.3°F7.4°C 44.5°F6.9°C 97% 1.7 mph NW2.7 kmh NW 3.1 mph5.0 kmh 29.68 in1005.1 mb 0.09 in2.3 mm 0.00 in/hr0.0 mm/hr 0.55 in14.0 mm
05:30 PM 45.9°F7.7°C 44.8°F7.1°C 96% Calm Calm -- 29.68 in1005.1 mb 0.11 in2.8 mm 0.12 in/hr3.0 mm/hr 0.55 in14.0 mm
05:15 PM 46.0°F7.8°C 44.4°F6.9°C 94% 0.6 mph W1.0 kmh W 2.2 mph3.5 kmh 29.68 in1005.1 mb 0.08 in2.0 mm 0.24 in/hr6.1 mm/hr 0.53 in13.5 mm
05:00 PM 46.6°F8.1°C 44.9°F7.2°C 94% 0.7 mph NE1.1 kmh NE 3.1 mph5.0 kmh 29.68 in1005.1 mb 0.02 in0.5 mm 0.00 in/hr0.0 mm/hr 0.47 in11.9 mm
04:45 PM 47.1°F8.4°C 45.2°F7.3°C 93% 0.8 mph NNW1.3 kmh NNW 2.2 mph3.5 kmh 29.68 in1005.1 mb 0.02 in0.5 mm 0.04 in/hr1.0 mm/hr 0.46 in11.7 mm
04:30 PM 47.7°F8.7°C 45.5°F7.5°C 92% 1.5 mph SW2.4 kmh SW 2.2 mph3.5 kmh 29.67 in1004.7 mb 0.01 in0.3 mm 0.00 in/hr0.0 mm/hr 0.44 in11.2 mm
04:15 PM 48.4°F9.1°C 45.9°F7.7°C 91% 0.9 mph S1.4 kmh S 1.6 mph2.6 kmh 29.67 in1004.7 mb 0.01 in0.3 mm 0.00 in/hr0.0 mm/hr 0.44 in11.2 mm
04:00 PM 48.7°F9.3°C 45.6°F7.6°C 89% 1.3 mph W2.1 kmh W 1.6 mph2.6 kmh 29.67 in1004.7 mb 0.01 in0.3 mm 0.01 in/hr0.3 mm/hr 0.44 in11.2 mm
03:45 PM 49.1°F9.5°C 45.4°F7.4°C 87% 1.5 mph W2.4 kmh W 2.2 mph3.5 kmh 29.66 in1004.4 mb 0.00 in0.0 mm 0.00 in/hr0.0 mm/hr 0.43 in10.9 mm
03:30 PM 49.6°F9.8°C 45.3°F7.4°C 85% 1.8 mph W2.9 kmh W 3.1 mph5.0 kmh 29.67 in1004.7 mb 0.00 in0.0 mm 0.00 in/hr0.0 mm/hr 0.43 in10.9 mm
03:15 PM 51.1°F10.6°C 45.8°F7.7°C 82% 3.3 mph NNW5.3 kmh NNW 5.4 mph8.7 kmh 29.66 in1004.4 mb 0.00 in0.0 mm 0.00 in/hr0.0 mm/hr 0.43 in10.9 mm
03:00 PM 51.6°F10.9°C 45.7°F7.6°C 80% 1.3 mph SSW2.1 kmh SSW 3.8 mph6.1 kmh 29.66 in1004.4 mb 0.00 in0.0 mm 0.00 in/hr0.0 mm/hr 0.43 in10.9 mm
02:45 PM 51.4°F10.8°C 45.2°F7.3°C 79% 2.5 mph SW4.0 kmh SW 4.5 mph7.2 kmh 29.66 in1004.4 mb 0.00 in0.0 mm 0.00 in/hr0.0 mm/hr 0.43 in10.9 mm
02:30 PM 50.9°F10.5°C 45.6°F7.6°C 82% 1.9 mph SSW3.1 kmh SSW 3.8 mph6.1 kmh 29.66 in1004.4 mb 0.00 in0.0 mm 0.00 in/hr0.0 mm/hr 0.43 in10.9 mm
02:15 PM 50.2°F10.1°C 45.2°F7.3°C 83% 2.6 mph SSW4.2 kmh SSW 4.5 mph7.2 kmh 29.66 in1004.4 mb 0.00 in0.0 mm 0.00 in/hr0.0 mm/hr 0.43 in10.9 mm
02:00 PM 50.0°F10.0°C 44.7°F7.1°C 82% 3.0 mph SW4.8 kmh SW 6.0 mph9.7 kmh 29.66 in1004.4 mb 0.00 in0.0 mm 0.00 in/hr0.0 mm/hr 0.43 in10.9 mm
01:45 PM 50.5°F10.3°C 44.3°F6.8°C 79% 4.0 mph SSW6.4 kmh SSW 6.0 mph9.7 kmh 29.66 in1004.4 mb 0.00 in0.0 mm 0.00 in/hr0.0 mm/hr 0.43 in10.9 mm
01:30 PM 51.3°F10.7°C 44.3°F6.8°C 77% 3.3 mph S5.3 kmh S 6.0 mph9.7 kmh 29.67 in1004.7 mb 0.00 in0.0 mm 0.00 in/hr0.0 mm/hr 0.43 in10.9 mm
01:15 PM 51.4°F10.8°C 44.8°F7.1°C 78% 3.2 mph SSW5.1 kmh SSW 5.4 mph8.7 kmh 29.67 in1004.7 mb 0.00 in0.0 mm 0.00 in/hr0.0 mm/hr 0.43 in10.9 mm
01:00 PM 51.4°F10.8°C 44.1°F6.7°C 76% 4.6 mph WSW7.4 kmh WSW 6.9 mph11.1 kmh 29.68 in1005.1 mb 0.00 in0.0 mm 0.00 in/hr0.0 mm/hr 0.43 in10.9 mm
12:45 PM 51.1°F10.6°C 43.8°F6.6°C 76% 3.9 mph WSW6.3 kmh WSW 7.6 mph12.2 kmh 29.68 in1005.1 mb 0.00 in0.0 mm 0.00 in/hr0.0 mm/hr 0.43 in10.9 mm
12:30 PM 50.5°F10.3°C 43.3°F6.3°C 76% 4.3 mph SW6.9 kmh SW 6.0 mph9.7 kmh 29.68 in1005.1 mb 0.00 in0.0 mm 0.00 in/hr0.0 mm/hr 0.43 in10.9 mm
12:15 PM 50.2°F10.1°C 43.6°F6.4°C 78% 4.1 mph S6.6 kmh S 6.0 mph9.7 kmh 29.69 in1005.4 mb 0.00 in0.0 mm 0.00 in/hr0.0 mm/hr 0.43 in10.9 mm
12:00 PM 49.8°F9.9°C 43.2°F6.2°C 78% 4.7 mph SSW7.6 kmh SSW 8.3 mph13.4 kmh 29.69 in1005.4 mb 0.00 in0.0 mm 0.00 in/hr0.0 mm/hr 0.43 in10.9 mm
11:45 AM 50.0°F10.0°C 43.4°F6.3°C 78% 3.3 mph S5.3 kmh S 6.0 mph9.7 kmh 29.70 in1005.8 mb 0.00 in0.0 mm 0.00 in/hr0.0 mm/hr 0.43 in10.9 mm
11:30 AM 50.2°F10.1°C 43.6°F6.4°C 78% 3.4 mph S5.5 kmh S 5.4 mph8.7 kmh 29.70 in1005.8 mb 0.00 in0.0 mm 0.00 in/hr0.0 mm/hr 0.43 in10.9 mm
11:15 AM 50.7°F10.4°C 43.8°F6.6°C 77% 4.9 mph SSW7.9 kmh SSW 8.3 mph13.4 kmh 29.70 in1005.8 mb 0.00 in0.0 mm 0.00 in/hr0.0 mm/hr 0.43 in10.9 mm
11:00 AM 50.9°F10.5°C 44.6°F7.0°C 79% 4.8 mph S7.7 kmh S 7.6 mph12.2 kmh 29.70 in1005.8 mb 0.00 in0.0 mm 0.00 in/hr0.0 mm/hr 0.43 in10.9 mm
10:45 AM 50.0°F10.0°C 44.7°F7.1°C 82% 3.2 mph S5.1 kmh S 5.4 mph8.7 kmh 29.70 in1005.8 mb 0.00 in0.0 mm 0.00 in/hr0.0 mm/hr 0.43 in10.9 mm
10:30 AM 49.1°F9.5°C 44.2°F6.8°C 83% 6.3 mph SW10.1 kmh SW 8.3 mph13.4 kmh 29.70 in1005.8 mb 0.00 in0.0 mm 0.00 in/hr0.0 mm/hr 0.43 in10.9 mm
10:15 AM 48.9°F9.4°C 44.0°F6.7°C 83% 7.0 mph SSW11.3 kmh SSW 8.3 mph13.4 kmh 29.70 in1005.8 mb 0.00 in0.0 mm 0.00 in/hr0.0 mm/hr 0.43 in10.9 mm
10:00 AM 49.1°F9.5°C 44.2°F6.8°C 83% 5.3 mph SSW8.5 kmh SSW 9.2 mph14.8 kmh 29.70 in1005.8 mb 0.00 in0.0 mm 0.00 in/hr0.0 mm/hr 0.43 in10.9 mm
09:45 AM 48.9°F9.4°C 44.0°F6.7°C 83% 6.2 mph S10.0 kmh S 8.3 mph13.4 kmh 29.69 in1005.4 mb 0.00 in0.0 mm 0.00 in/hr0.0 mm/hr 0.43 in10.9 mm
09:30 AM 49.1°F9.5°C 44.2°F6.8°C 83% 7.5 mph SSW12.1 kmh SSW 11.4 mph18.3 kmh 29.70 in1005.8 mb 0.00 in0.0 mm 0.00 in/hr0.0 mm/hr 0.43 in10.9 mm
09:15 AM 48.6°F9.2°C 44.9°F7.2°C 87% 4.0 mph SSW6.4 kmh SSW 6.9 mph11.1 kmh 29.69 in1005.4 mb 0.24 in6.1 mm 0.00 in/hr0.0 mm/hr 0.43 in10.9 mm
09:00 AM 47.5°F8.6°C 44.7°F7.1°C 90% 7.7 mph S12.4 kmh S 11.4 mph18.3 kmh 29.69 in1005.4 mb 0.81 in20.6 mm 0.00 in/hr0.0 mm/hr 0.43 in10.9 mm
08:45 AM 46.2°F7.9°C 44.3°F6.8°C 93% 7.4 mph S11.9 kmh S 12.1 mph19.5 kmh 29.70 in1005.8 mb 0.83 in21.1 mm 0.00 in/hr0.0 mm/hr 0.43 in10.9 mm
08:30 AM 44.8°F7.1°C 44.0°F6.7°C 97% 6.5 mph S10.5 kmh S 9.8 mph15.8 kmh 29.70 in1005.8 mb 0.83 in21.1 mm 0.96 in/hr24.4 mm/hr 0.43 in10.9 mm
08:15 AM 44.2°F6.8°C 44.0°F6.7°C 99% 4.4 mph WSW7.1 kmh WSW 14.5 mph23.3 kmh 29.70 in1005.8 mb 0.59 in15.0 mm 2.32 in/hr58.9 mm/hr 0.61 in15.5 mm
08:00 AM 43.5°F6.4°C 43.3°F6.3°C 99% 9.2 mph SE14.8 kmh SE 14.5 mph23.3 kmh 29.71 in1006.1 mb 0.01 in0.3 mm 0.01 in/hr0.3 mm/hr 0.04 in1.0 mm
07:45 AM 43.2°F6.2°C 42.9°F6.1°C 99% 7.6 mph SE12.2 kmh SE 13.0 mph20.9 kmh 29.72 in1006.4 mb 0.00 in0.0 mm 0.00 in/hr0.0 mm/hr 0.02 in0.5 mm
07:30 AM 43.2°F6.2°C 42.9°F6.1°C 99% 10.3 mph SE16.6 kmh SE 14.5 mph23.3 kmh 29.71 in1006.1 mb 0.00 in0.0 mm 0.00 in/hr0.0 mm/hr 0.02 in0.5 mm
07:15 AM 43.2°F6.2°C 42.9°F6.1°C 99% 14.4 mph S23.2 kmh S 18.3 mph29.5 kmh 29.70 in1005.8 mb 0.00 in0.0 mm 0.00 in/hr0.0 mm/hr 0.02 in0.5 mm
07:00 AM 42.8°F6.0°C 42.5°F5.8°C 99% 14.7 mph SE23.7 kmh SE 18.3 mph29.5 kmh 29.70 in1005.8 mb 0.00 in0.0 mm 0.00 in/hr0.0 mm/hr 0.02 in0.5 mm
06:45 AM 42.8°F6.0°C 42.5°F5.8°C 99% 8.4 mph SSW13.5 kmh SSW 13.0 mph20.9 kmh 29.72 in1006.4 mb 0.00 in0.0 mm 0.00 in/hr0.0 mm/hr 0.02 in0.5 mm
06:30 AM 42.8°F6.0°C 42.5°F5.8°C 99% 7.9 mph WSW12.7 kmh WSW 11.4 mph18.3 kmh 29.73 in1006.8 mb 0.00 in0.0 mm 0.00 in/hr0.0 mm/hr 0.02 in0.5 mm
06:15 AM 43.0°F6.1°C 42.7°F5.9°C 99% 8.8 mph S14.2 kmh S 14.5 mph23.3 kmh 29.73 in1006.8 mb 0.00 in0.0 mm 0.00 in/hr0.0 mm/hr 0.02 in0.5 mm
06:00 AM 42.6°F5.9°C 42.4°F5.8°C 99% 6.4 mph NW10.3 kmh NW 11.4 mph18.3 kmh 29.72 in1006.4 mb 0.00 in0.0 mm 0.00 in/hr0.0 mm/hr 0.02 in0.5 mm
05:45 AM 42.4°F5.8°C 42.2°F5.7°C 99% 8.3 mph SSE13.4 kmh SSE 13.0 mph20.9 kmh 29.72 in1006.4 mb 0.00 in0.0 mm 0.00 in/hr0.0 mm/hr 0.02 in0.5 mm
05:30 AM 42.4°F5.8°C 42.2°F5.7°C 99% 9.5 mph S15.3 kmh S 15.9 mph25.6 kmh 29.73 in1006.8 mb 0.00 in0.0 mm 0.00 in/hr0.0 mm/hr 0.02 in0.5 mm
05:15 AM 42.4°F5.8°C 42.2°F5.7°C 99% 10.5 mph S16.9 kmh S 15.9 mph25.6 kmh 29.73 in1006.8 mb 0.00 in0.0 mm 0.00 in/hr0.0 mm/hr 0.02 in0.5 mm
05:00 AM 42.6°F5.9°C 42.4°F5.8°C 99% 8.8 mph N14.2 kmh N 14.5 mph23.3 kmh 29.73 in1006.8 mb 0.00 in0.0 mm 0.00 in/hr0.0 mm/hr 0.02 in0.5 mm
04:45 AM 42.8°F6.0°C 42.5°F5.8°C 99% 8.4 mph SSE13.5 kmh SSE 13.6 mph21.9 kmh 29.73 in1006.8 mb 0.00 in0.0 mm 0.00 in/hr0.0 mm/hr 0.02 in0.5 mm
04:30 AM 43.2°F6.2°C 42.9°F6.1°C 99% 9.4 mph SSW15.1 kmh SSW 17.4 mph28.0 kmh 29.73 in1006.8 mb 0.00 in0.0 mm 0.00 in/hr0.0 mm/hr 0.02 in0.5 mm
04:15 AM 43.2°F6.2°C 42.9°F6.1°C 99% 7.5 mph SW12.1 kmh SW 16.8 mph27.0 kmh 29.73 in1006.8 mb 0.00 in0.0 mm 0.00 in/hr0.0 mm/hr 0.02 in0.5 mm
04:00 AM 43.3°F6.3°C 43.1°F6.2°C 99% 11.2 mph SSW18.0 kmh SSW 15.9 mph25.6 kmh 29.75 in1007.5 mb 0.00 in0.0 mm 0.00 in/hr0.0 mm/hr 0.02 in0.5 mm
03:45 AM 43.2°F6.2°C 42.9°F6.1°C 99% 8.6 mph WSW13.8 kmh WSW 14.5 mph23.3 kmh 29.75 in1007.5 mb 0.00 in0.0 mm 0.00 in/hr0.0 mm/hr 0.02 in0.5 mm
03:30 AM 43.5°F6.4°C 43.3°F6.3°C 99% 7.3 mph ESE11.7 kmh ESE 13.6 mph21.9 kmh 29.75 in1007.5 mb 0.00 in0.0 mm 0.00 in/hr0.0 mm/hr 0.02 in0.5 mm
03:15 AM 43.7°F6.5°C 43.4°F6.3°C 99% 8.4 mph SW13.5 kmh SW 15.9 mph25.6 kmh 29.74 in1007.1 mb 0.00 in0.0 mm 0.00 in/hr0.0 mm/hr 0.02 in0.5 mm
03:00 AM 43.9°F6.6°C 43.6°F6.4°C 99% 8.6 mph SW13.8 kmh SW 16.8 mph27.0 kmh 29.75 in1007.5 mb 0.00 in0.0 mm 0.00 in/hr0.0 mm/hr 0.02 in0.5 mm
02:45 AM 43.9°F6.6°C 43.6°F6.4°C 99% 8.7 mph W14.0 kmh W 13.6 mph21.9 kmh 29.75 in1007.5 mb 0.00 in0.0 mm 0.00 in/hr0.0 mm/hr 0.02 in0.5 mm
02:30 AM 44.1°F6.7°C 43.8°F6.6°C 99% 7.9 mph NW12.7 kmh NW 13.6 mph21.9 kmh 29.75 in1007.5 mb 0.00 in0.0 mm 0.00 in/hr0.0 mm/hr 0.02 in0.5 mm
02:15 AM 43.9°F6.6°C 43.6°F6.4°C 99% 7.8 mph WSW12.6 kmh WSW 10.7 mph17.2 kmh 29.75 in1007.5 mb 0.00 in0.0 mm 0.00 in/hr0.0 mm/hr 0.02 in0.5 mm
02:00 AM 44.1°F6.7°C 43.8°F6.6°C 99% 8.5 mph SW13.7 kmh SW 13.0 mph20.9 kmh 29.76 in1007.8 mb 0.00 in0.0 mm 0.00 in/hr0.0 mm/hr 0.02 in0.5 mm
01:45 AM 44.1°F6.7°C 43.8°F6.6°C 99% 6.0 mph SE9.7 kmh SE 9.2 mph14.8 kmh 29.77 in1008.1 mb 0.02 in0.5 mm 0.00 in/hr0.0 mm/hr 0.02 in0.5 mm
01:30 AM 43.9°F6.6°C 43.6°F6.4°C 99% 7.2 mph SSW11.6 kmh SSW 11.4 mph18.3 kmh 29.78 in1008.5 mb 0.02 in0.5 mm 0.00 in/hr0.0 mm/hr 0.02 in0.5 mm
01:15 AM 43.9°F6.6°C 43.6°F6.4°C 99% 8.1 mph S13.0 kmh S 13.6 mph21.9 kmh 29.79 in1008.8 mb 0.02 in0.5 mm 0.00 in/hr0.0 mm/hr 0.02 in0.5 mm
01:00 AM 43.7°F6.5°C 43.4°F6.3°C 99% 5.7 mph E9.2 kmh E 9.8 mph15.8 kmh 29.79 in1008.8 mb 0.02 in0.5 mm 0.03 in/hr0.8 mm/hr 0.02 in0.5 mm
12:45 AM 43.7°F6.5°C 43.4°F6.3°C 99% 5.5 mph SW8.9 kmh SW 10.7 mph17.2 kmh 29.79 in1008.8 mb 0.00 in0.0 mm 0.00 in/hr0.0 mm/hr 0.00 in0.0 mm
12:30 AM 43.7°F6.5°C 43.4°F6.3°C 99% 5.5 mph WNW8.9 kmh WNW 8.3 mph13.4 kmh 29.80 in1009.1 mb 0.00 in0.0 mm 0.00 in/hr0.0 mm/hr 0.00 in0.0 mm
12:15 AM 43.9°F6.6°C 43.6°F6.4°C 99% 7.0 mph SE11.3 kmh SE 12.1 mph19.5 kmh 29.81 in1009.5 mb 0.00 in0.0 mm 0.00 in/hr0.0 mm/hr 0.00 in0.0 mm
12:00 AM 43.7°F6.5°C 43.4°F6.3°C 99% 10.4 mph S16.7 kmh S 13.6 mph21.9 kmh 29.80 in1009.1 mb 0.00 in0.0 mm 0.00 in/hr0.0 mm/hr 0.00 in0.0 mm